Time;durP1;ratioP1;P1;durP2;ratioP2;P2;SDS_P1;SDS_P2;PMS_P1;PMS_P2;Temp;Humidity;BMP_temperature;BMP_pressure;BME280_temperature;BME280_humidity;BME280_pressure;Samples;Min_cycle;Max_cycle;Signal;HPM_P1;HPM_P2
2022/06/17 00:01:44;;;;;;;2.45;1.00;;;13.80;99.90;;;;;;5043120;28;20021;-77
2022/06/17 00:04:12;;;;;;;1.70;0.80;;;13.70;99.90;;;;;;5024629;28;20045;-76
2022/06/17 00:06:48;;;;;;;0.98;0.70;;;13.80;99.90;;;;;;5046107;28;20021;-76
2022/06/17 00:09:18;;;;;;;0.55;0.50;;;13.90;99.80;;;;;;5058860;28;20033;-76
2022/06/17 00:11:45;;;;;;;1.70;0.65;;;14.00;99.80;;;;;;5043829;28;20100;-76
2022/06/17 00:14:22;;;;;;;1.88;0.77;;;14.10;99.70;;;;;;5030734;28;20095;-74
2022/06/17 00:16:49;;;;;;;0.80;0.68;;;14.20;99.50;;;;;;5028717;28;20478;-75
2022/06/17 00:19:18;;;;;;;2.00;0.70;;;14.20;99.50;;;;;;5030771;28;20415;-76
2022/06/17 00:21:49;;;;;;;2.53;0.80;;;14.30;99.60;;;;;;5065857;28;20132;-74
2022/06/17 00:24:18;;;;;;;0.80;0.57;;;14.30;99.30;;;;;;5063197;28;20112;-76
2022/06/17 00:26:46;;;;;;;3.60;0.80;;;14.40;99.10;;;;;;5046627;28;20033;-73
2022/06/17 00:29:16;;;;;;;2.38;0.60;;;14.40;99.30;;;;;;5038363;28;20028;-75
2022/06/17 00:31:43;;;;;;;1.13;0.60;;;14.50;99.00;;;;;;5035372;28;20052;-74
2022/06/17 00:34:11;;;;;;;2.00;0.80;;;14.60;99.10;;;;;;5048517;28;20033;-74
2022/06/17 00:36:40;;;;;;;2.05;0.88;;;14.60;99.10;;;;;;5052721;28;20028;-75
2022/06/17 00:39:14;;;;;;;2.47;0.75;;;14.60;98.70;;;;;;5053086;28;20410;-74
2022/06/17 00:41:44;;;;;;;3.63;0.90;;;14.70;98.90;;;;;;5038909;28;20013;-75
2022/06/17 00:44:53;;;;;;;1.65;0.73;;;14.80;98.90;;;;;;5032522;28;20041;-75
2022/06/17 00:47:27;;;;;;;2.05;0.50;;;14.80;99.00;;;;;;5032999;28;20105;-75
2022/06/17 00:49:58;;;;;;;2.55;0.80;;;15.00;98.70;;;;;;5035683;28;20025;-74
2022/06/17 00:53:07;;;;;;;1.88;0.60;;;15.00;98.50;;;;;;5031721;28;20071;-76
2022/06/17 00:55:52;;;;;;;1.55;0.80;;;15.10;98.40;;;;;;5012939;28;20564;-73
2022/06/17 00:58:27;;;;;;;1.70;0.70;;;15.10;98.00;;;;;;5013876;28;20454;-75
2022/06/17 01:00:58;;;;;;;1.08;0.60;;;15.20;98.10;;;;;;5031719;28;20024;-75
2022/06/17 01:03:37;;;;;;;1.38;0.60;;;15.20;98.20;;;;;;5047683;28;20029;-75
2022/06/17 01:06:20;;;;;;;1.00;0.57;;;15.40;98.10;;;;;;5053204;28;20028;-75
2022/06/17 01:12:00;;;;;;;1.70;1.38;;;15.50;98.00;;;;;;5036597;28;20040;-75
2022/06/17 01:14:29;;;;;;;4.53;0.70;;;15.60;97.70;;;;;;5032079;28;20350;-75
2022/06/17 01:16:58;;;;;;;1.38;0.50;;;15.80;97.60;;;;;;5032860;28;20029;-74
2022/06/17 01:19:38;;;;;;;1.92;0.70;;;15.90;97.20;;;;;;5048370;28;20026;-73
2022/06/17 01:22:26;;;;;;;1.25;0.50;;;16.00;97.10;;;;;;5034794;28;20026;-74
2022/06/17 01:25:00;;;;;;;0.82;0.50;;;16.10;96.80;;;;;;5030911;28;20029;-76
2022/06/17 01:27:40;;;;;;;1.08;0.60;;;16.20;96.70;;;;;;5031569;28;20075;-74
2022/06/17 01:30:11;;;;;;;2.38;0.80;;;16.30;96.70;;;;;;5061293;28;20033;-71
2022/06/17 01:32:47;;;;;;;0.68;0.57;;;16.40;96.80;;;;;;5042968;28;20033;-74
2022/06/17 01:35:15;;;;;;;2.67;0.80;;;16.50;96.40;;;;;;5035073;28;20029;-73
2022/06/17 01:37:43;;;;;;;0.60;0.50;;;16.60;96.10;;;;;;5052909;28;20025;-74
2022/06/17 01:40:11;;;;;;;0.50;0.45;;;16.70;95.90;;;;;;5051835;28;20420;-74
2022/06/17 01:42:39;;;;;;;0.50;0.50;;;16.80;95.40;;;;;;5051090;28;20033;-73
2022/06/17 01:45:10;;;;;;;0.50;0.50;;;16.90;95.40;;;;;;5050353;28;20025;-74
2022/06/17 01:47:42;;;;;;;0.70;0.50;;;17.00;95.20;;;;;;5052518;28;20063;-74
2022/06/17 01:50:16;;;;;;;2.10;0.52;;;17.20;94.80;;;;;;5036918;28;20469;-75
2022/06/17 01:53:06;;;;;;;2.15;0.50;;;17.30;94.50;;;;;;5052769;28;20032;-75
2022/06/17 01:55:45;;;;;;;0.30;0.30;;;17.40;94.60;;;;;;5052696;28;20118;-75
2022/06/17 01:58:36;;;;;;;0.55;0.50;;;17.60;94.30;;;;;;5051615;28;20082;-77
2022/06/17 02:01:07;;;;;;;0.73;0.45;;;17.80;94.00;;;;;;5050423;28;20120;-76
2022/06/17 02:03:40;;;;;;;2.15;0.60;;;18.00;93.70;;;;;;5067511;28;20111;-77
2022/06/17 02:06:11;;;;;;;2.38;1.70;;;18.20;93.30;;;;;;5046256;28;20417;-76
2022/06/17 02:08:42;;;;;;;5.47;4.18;;;18.40;93.20;;;;;;5029888;28;20052;-77
2022/06/17 02:11:13;;;;;;;2.55;0.90;;;18.50;92.60;;;;;;5041234;28;20029;-76
2022/06/17 02:13:41;;;;;;;1.03;0.50;;;18.60;92.50;;;;;;5065316;28;20113;-75
2022/06/17 02:16:09;;;;;;;0.43;0.40;;;18.50;92.20;;;;;;5042281;28;20029;-76
2022/06/17 02:18:40;;;;;;;1.48;0.55;;;18.50;92.30;;;;;;5065750;28;20029;-77
2022/06/17 02:21:29;;;;;;;1.15;0.50;;;18.70;92.10;;;;;;5046739;28;20025;-76
2022/06/17 02:23:58;;;;;;;1.50;0.50;;;18.70;92.10;;;;;;5034719;28;20069;-76
2022/06/17 02:26:25;;;;;;;0.85;0.40;;;18.70;91.90;;;;;;5032258;28;20042;-76
2022/06/17 02:28:53;;;;;;;0.60;0.38;;;18.90;91.80;;;;;;5031484;28;20032;-76
2022/06/17 02:31:22;;;;;;;0.60;0.50;;;19.00;91.30;;;;;;5059527;28;20112;-75
2022/06/17 02:33:51;;;;;;;0.47;0.43;;;19.20;91.10;;;;;;5050055;28;20048;-77
2022/06/17 02:36:57;;;;;;;1.35;0.40;;;19.50;90.70;;;;;;5032668;28;20022;-77
2022/06/17 02:39:26;;;;;;;0.95;0.50;;;19.50;90.70;;;;;;5045901;28;20123;-79
2022/06/17 02:41:54;;;;;;;0.82;0.40;;;19.60;90.60;;;;;;5064767;28;20451;-77
2022/06/17 02:44:35;;;;;;;0.70;0.40;;;19.50;90.20;;;;;;5050517;28;20067;-77
2022/06/17 02:47:03;;;;;;;0.43;0.40;;;19.40;90.60;;;;;;5047900;28;20033;-78
2022/06/17 02:49:34;;;;;;;1.77;0.50;;;19.80;90.40;;;;;;5047196;28;20465;-77
2022/06/17 02:52:07;;;;;;;3.20;1.45;;;20.40;88.90;;;;;;5062803;28;20033;-77
2022/06/17 02:54:36;;;;;;;;;;;20.90;87.20;;;;;;5048286;28;20045;-77
2022/06/17 02:57:08;;;;;;;1.38;0.90;;;21.20;84.90;;;;;;5049271;28;19909;-77
2022/06/17 02:59:42;;;;;;;2.45;0.98;;;21.00;84.30;;;;;;5045388;28;20505;-75
2022/06/17 03:02:30;;;;;;;1.00;0.65;;;20.70;84.40;;;;;;5047752;28;20485;-76
2022/06/17 03:04:58;;;;;;;1.30;0.70;;;20.70;85.40;;;;;;5042596;28;20029;-77
2022/06/17 03:07:30;;;;;;;1.27;0.50;;;20.70;85.00;;;;;;5049988;28;20047;-78
2022/06/17 03:09:57;;;;;;;1.30;0.70;;;20.80;85.30;;;;;;5047465;28;20077;-78
2022/06/17 03:12:29;;;;;;;2.03;1.52;;;21.20;85.20;;;;;;5051048;28;20028;-76
2022/06/17 03:15:10;;;;;;;2.20;1.70;;;21.40;83.50;;;;;;5049393;28;20028;-76
2022/06/17 03:17:42;;;;;;;2.28;1.48;;;21.40;83.40;;;;;;5055980;28;20036;-77
2022/06/17 03:20:18;;;;;;;3.00;1.48;;;21.60;83.80;;;;;;5028221;28;20025;-78
2022/06/17 03:22:49;;;;;;;3.70;1.65;;;21.80;81.80;;;;;;5055026;28;20331;-77
2022/06/17 03:26:00;;;;;;;5.35;1.40;;;21.60;81.30;;;;;;5050758;28;20492;-76
2022/06/17 03:28:53;;;;;;;5.13;1.50;;;21.20;81.80;;;;;;5008806;28;20062;-76
2022/06/17 03:31:39;;;;;;;2.13;1.15;;;20.70;82.40;;;;;;5049611;28;20059;-77
2022/06/17 03:34:14;;;;;;;2.45;1.20;;;20.50;82.90;;;;;;5049764;28;20039;-76
2022/06/17 03:36:53;;;;;;;3.95;1.67;;;20.50;83.60;;;;;;5036444;28;20076;-77
2022/06/17 03:39:44;;;;;;;6.20;3.67;;;20.20;83.80;;;;;;5029531;28;20017;-78
2022/06/17 03:42:31;;;;;;;3.17;1.85;;;20.20;85.30;;;;;;5049591;28;20028;-77
2022/06/17 03:45:10;;;;;;;3.05;1.13;;;20.30;85.40;;;;;;5042319;28;20038;-76
2022/06/17 03:48:02;;;;;;;1.63;0.80;;;21.00;84.00;;;;;;5049095;28;20017;-76
2022/06/17 03:50:37;;;;;;;3.83;1.13;;;21.70;81.10;;;;;;5074490;28;20108;-77
2022/06/17 03:53:23;;;;;;;3.00;0.82;;;21.70;81.00;;;;;;5065247;28;20469;-79
2022/06/17 03:55:57;;;;;;;3.25;1.00;;;22.00;80.00;;;;;;5042509;28;20116;-76
2022/06/17 03:58:25;;;;;;;3.17;1.20;;;21.60;80.90;;;;;;5049702;28;20587;-76
2022/06/17 04:01:01;;;;;;;4.22;0.95;;;21.10;81.70;;;;;;5065483;28;20467;-76
2022/06/17 04:03:34;;;;;;;2.55;1.95;;;20.70;82.80;;;;;;5049523;28;20051;-77
2022/06/17 04:06:14;;;;;;;3.92;2.28;;;20.20;84.50;;;;;;5052505;28;20013;-76
2022/06/17 04:08:55;;;;;;;2.65;1.20;;;19.80;84.90;;;;;;5034761;28;20410;-76
2022/06/17 04:11:28;;;;;;;4.45;1.30;;;19.50;85.90;;;;;;5052067;28;20033;-76
2022/06/17 04:13:58;;;;;;;4.03;1.70;;;19.30;86.50;;;;;;5052590;28;20021;-77
2022/06/17 04:16:32;;;;;;;4.97;1.55;;;19.20;87.00;;;;;;5054103;28;20029;-76
2022/06/17 04:19:12;;;;;;;1.73;0.80;;;19.00;87.80;;;;;;5045550;28;20032;-78
2022/06/17 04:21:40;;;;;;;5.00;0.90;;;18.90;87.30;;;;;;5034241;28;20025;-77
2022/06/17 04:24:30;;;;;;;2.90;1.20;;;18.80;87.50;;;;;;5034116;28;20080;-76
2022/06/17 04:27:05;;;;;;;4.93;2.67;;;18.80;88.00;;;;;;5034142;28;20049;-76
2022/06/17 04:29:44;;;;;;;9.00;3.40;;;18.80;87.70;;;;;;5042275;28;20024;-76
2022/06/17 04:32:34;;;;;;;5.03;2.28;;;18.70;87.50;;;;;;5052776;28;20397;-76
2022/06/17 04:35:01;;;;;;;4.07;2.05;;;18.70;87.90;;;;;;5053772;28;20017;-75
2022/06/17 04:37:29;;;;;;;3.40;1.52;;;18.70;88.30;;;;;;5049925;28;20021;-75
2022/06/17 04:40:01;;;;;;;2.92;1.20;;;18.70;88.00;;;;;;5033922;28;20020;-75
2022/06/17 04:42:38;;;;;;;4.03;0.90;;;18.60;88.60;;;;;;5048490;28;20116;-77
2022/06/17 04:45:06;;;;;;;6.97;0.90;;;18.70;88.40;;;;;;5035810;28;20038;-75
2022/06/17 04:47:34;;;;;;;2.30;0.80;;;18.60;88.10;;;;;;5079050;28;20430;-77
2022/06/17 04:50:05;;;;;;;6.50;1.20;;;18.70;88.60;;;;;;5053280;28;20028;-76
2022/06/17 04:52:36;;;;;;;4.38;1.23;;;18.80;89.00;;;;;;5053426;28;20029;-77
2022/06/17 04:55:10;;;;;;;3.60;1.38;;;18.80;88.70;;;;;;5051716;28;20429;-77
2022/06/17 04:57:39;;;;;;;3.45;1.95;;;18.80;88.80;;;;;;5048653;28;20128;-77
2022/06/17 05:00:14;;;;;;;3.92;1.70;;;18.80;88.90;;;;;;5053528;28;20158;-79
2022/06/17 05:02:42;;;;;;;4.82;1.13;;;18.70;88.80;;;;;;5053132;28;20410;-75
2022/06/17 05:05:16;;;;;;;2.70;1.20;;;18.70;88.80;;;;;;5034295;28;20036;-76
2022/06/17 05:07:49;;;;;;;5.30;1.33;;;18.70;89.10;;;;;;5044030;28;20017;-76
2022/06/17 05:10:22;;;;;;;5.13;1.75;;;18.70;89.80;;;;;;5037150;28;20405;-76
2022/06/17 05:13:24;;;;;;;2.67;1.20;;;18.70;88.90;;;;;;5042466;28;20031;-78
2022/06/17 05:15:51;;;;;;;3.22;1.20;;;18.60;89.60;;;;;;5034030;28;20071;-75
2022/06/17 05:18:19;;;;;;;2.80;1.20;;;18.60;89.70;;;;;;5033284;28;20017;-74
2022/06/17 05:20:46;;;;;;;17.42;1.98;;;18.50;90.10;;;;;;5035179;28;20057;-76
2022/06/17 05:23:16;;;;;;;4.28;1.33;;;18.50;90.20;;;;;;5028205;28;20064;-76
2022/06/17 05:25:48;;;;;;;13.65;2.67;;;18.50;90.20;;;;;;5050607;28;20022;-75
2022/06/17 05:28:19;;;;;;;6.20;1.53;;;18.40;90.30;;;;;;5048034;28;20025;-76
2022/06/17 05:30:54;;;;;;;4.50;1.40;;;18.40;90.20;;;;;;5055556;28;20254;-76
2022/06/17 05:33:22;;;;;;;5.07;1.40;;;18.50;90.40;;;;;;5052692;28;20021;-77
2022/06/17 05:35:50;;;;;;;6.00;2.03;;;18.80;90.00;;;;;;5053364;28;20120;-74
2022/06/17 05:38:17;;;;;;;4.13;1.50;;;19.10;89.50;;;;;;5032049;28;20021;-75
2022/06/17 05:40:44;;;;;;;5.03;1.40;;;19.30;89.00;;;;;;5048068;28;20082;-73
2022/06/17 05:43:12;;;;;;;4.28;1.73;;;19.40;89.20;;;;;;5044646;28;20061;-79
2022/06/17 05:45:40;;;;;;;4.35;1.90;;;19.40;89.90;;;;;;5037198;28;20370;-75
2022/06/17 05:48:08;;;;;;;4.35;1.65;;;19.20;90.20;;;;;;5034139;28;20025;-75
2022/06/17 05:50:36;;;;;;;5.82;1.40;;;19.20;90.60;;;;;;5033573;28;20017;-75
2022/06/17 05:53:06;;;;;;;5.88;1.67;;;19.10;90.60;;;;;;5030698;28;20025;-75
2022/06/17 05:55:34;;;;;;;3.85;1.60;;;19.10;90.50;;;;;;5031050;28;20048;-76
2022/06/17 05:58:03;;;;;;;6.28;1.50;;;19.10;90.80;;;;;;5034677;28;20070;-75
2022/06/17 06:00:32;;;;;;;7.68;1.60;;;19.20;90.80;;;;;;5051203;28;20482;-77
2022/06/17 06:03:01;;;;;;;5.88;1.77;;;19.40;90.60;;;;;;5055374;28;20091;-76
2022/06/17 06:05:33;;;;;;;8.90;2.50;;;19.60;90.40;;;;;;5034754;28;20013;-76
2022/06/17 06:08:01;;;;;;;5.10;1.90;;;19.60;90.10;;;;;;5048848;28;20044;-75
2022/06/17 06:10:29;;;;;;;6.38;1.95;;;19.40;90.60;;;;;;5034776;28;20033;-78
2022/06/17 06:13:05;;;;;;;9.05;2.60;;;19.10;90.80;;;;;;5031880;28;20112;-78
2022/06/17 06:15:39;;;;;;;8.38;2.28;;;18.70;91.40;;;;;;5030882;28;20667;-76
2022/06/17 06:18:10;;;;;;;7.78;2.70;;;18.40;91.70;;;;;;5027659;28;20040;-81
2022/06/17 06:20:38;;;;;;;8.13;2.55;;;18.10;92.00;;;;;;5038565;28;20358;-76
2022/06/17 06:23:09;;;;;;;6.28;2.40;;;17.90;92.40;;;;;;5038600;28;20029;-73
2022/06/17 06:25:36;;;;;;;7.18;2.85;;;17.90;92.90;;;;;;5049620;28;20112;-75
2022/06/17 06:28:19;;;;;;;6.50;2.72;;;17.70;93.20;;;;;;5028675;28;20017;-76
2022/06/17 06:31:05;;;;;;;9.63;2.47;;;17.50;93.20;;;;;;5057905;28;20036;-75
2022/06/17 06:33:33;;;;;;;5.50;2.53;;;17.40;93.40;;;;;;5038926;28;20064;-76
2022/06/17 06:36:02;;;;;;;6.78;2.00;;;17.30;93.50;;;;;;5031500;28;20631;-78
2022/06/17 06:38:31;;;;;;;6.53;2.60;;;17.30;93.60;;;;;;5031561;28;20021;-77
2022/06/17 06:40:59;;;;;;;6.93;4.85;;;17.20;93.20;;;;;;5040707;28;20032;-76
2022/06/17 06:43:26;;;;;;;7.65;2.78;;;17.10;93.20;;;;;;5037124;28;20034;-74
2022/06/17 06:45:54;;;;;;;9.98;2.90;;;17.00;93.10;;;;;;5040655;28;20020;-73
2022/06/17 06:48:25;;;;;;;6.68;2.17;;;16.90;93.10;;;;;;5037196;28;20108;-75
2022/06/17 06:50:53;;;;;;;5.82;1.83;;;16.80;93.20;;;;;;5057949;28;20025;-74
2022/06/17 06:53:20;;;;;;;7.72;1.75;;;16.70;93.40;;;;;;5054486;28;20034;-73
2022/06/17 06:55:48;;;;;;;9.32;3.15;;;16.60;93.30;;;;;;5031839;28;20033;-74
2022/06/17 06:58:21;;;;;;;9.80;4.20;;;16.60;93.40;;;;;;5033589;28;20742;-74
2022/06/17 07:00:50;;;;;;;5.85;2.78;;;16.50;93.50;;;;;;5050912;28;20025;-74
2022/06/17 07:03:19;;;;;;;12.38;7.13;;;16.40;93.60;;;;;;5040148;28;20029;-75
2022/06/17 07:05:49;;;;;;;9.95;5.93;;;16.40;93.80;;;;;;5031452;28;20052;-76
2022/06/17 07:08:24;;;;;;;12.93;6.13;;;16.30;93.80;;;;;;5031926;28;20025;-75
2022/06/17 07:10:55;;;;;;;9.30;3.90;;;16.20;93.70;;;;;;5039943;28;20021;-74
2022/06/17 07:13:22;;;;;;;7.25;3.30;;;16.20;93.50;;;;;;5039000;28;20053;-76
2022/06/17 07:15:56;;;;;;;4.45;2.67;;;16.10;93.50;;;;;;5030560;28;20108;-75
2022/06/17 07:18:26;;;;;;;5.38;2.80;;;16.00;93.30;;;;;;5030579;28;20433;-76
2022/06/17 07:21:00;;;;;;;4.63;2.15;;;16.00;93.20;;;;;;5039721;28;20082;-74
2022/06/17 07:23:36;;;;;;;4.53;1.92;;;16.00;93.20;;;;;;5038786;28;20021;-76
2022/06/17 07:26:06;;;;;;;3.58;1.52;;;15.90;93.20;;;;;;5030684;28;20560;-75
2022/06/17 07:28:34;;;;;;;4.15;1.98;;;15.90;93.10;;;;;;5030364;28;20122;-76
2022/06/17 07:31:02;;;;;;;6.25;2.75;;;15.90;93.10;;;;;;5040487;28;20465;-75
2022/06/17 07:33:31;;;;;;;5.07;2.97;;;15.80;93.10;;;;;;5037156;28;20026;-72
2022/06/17 07:36:01;;;;;;;4.13;2.00;;;15.80;92.90;;;;;;5030882;28;20042;-76
2022/06/17 07:41:25;;;;;;;6.30;3.90;;;15.70;92.90;;;;;;5037794;28;20055;-74
2022/06/17 07:43:53;;;;;;;5.93;2.42;;;15.70;92.90;;;;;;5034190;28;20025;-76
2022/06/17 07:46:21;;;;;;;5.32;2.00;;;15.60;92.80;;;;;;5046934;28;20446;-76
2022/06/17 07:48:49;;;;;;;3.05;1.33;;;15.60;92.80;;;;;;5031586;28;20459;-74
2022/06/17 07:51:17;;;;;;;5.32;1.60;;;15.60;92.90;;;;;;5056603;28;20029;-77
2022/06/17 07:53:45;;;;;;;3.65;1.70;;;15.60;92.80;;;;;;5034181;28;20033;-74
2022/06/17 07:56:15;;;;;;;3.83;1.27;;;15.60;92.70;;;;;;5030269;28;20025;-75
2022/06/17 07:58:43;;;;;;;2.88;1.88;;;15.60;92.70;;;;;;5033665;28;20564;-75
2022/06/17 08:01:12;;;;;;;3.45;1.60;;;15.70;92.60;;;;;;5048713;28;20726;-74
2022/06/17 08:03:40;;;;;;;4.40;1.40;;;15.70;92.60;;;;;;5045993;28;20041;-75
2022/06/17 08:06:09;;;;;;;5.13;1.65;;;15.70;92.60;;;;;;5049943;28;20075;-77
2022/06/17 08:08:37;;;;;;;4.50;1.60;;;15.60;92.60;;;;;;5050856;28;20021;-76
2022/06/17 08:11:04;;;;;;;7.22;1.92;;;15.70;92.70;;;;;;5049979;28;20128;-74
2022/06/17 08:13:31;;;;;;;4.97;2.22;;;15.60;92.70;;;;;;5036927;28;20025;-77
2022/06/17 08:16:08;;;;;;;5.07;1.50;;;15.60;92.80;;;;;;5029510;28;20024;-77
2022/06/17 08:18:37;;;;;;;3.38;1.38;;;15.60;92.90;;;;;;5030430;28;20029;-75
2022/06/17 08:21:04;;;;;;;2.97;1.83;;;15.60;92.90;;;;;;5055480;28;20075;-77
2022/06/17 08:23:32;;;;;;;3.72;1.83;;;15.60;92.90;;;;;;5044922;28;20463;-77
2022/06/17 08:26:00;;;;;;;4.28;1.52;;;15.60;92.90;;;;;;5040846;28;20013;-71
2022/06/17 08:28:28;;;;;;;5.18;2.63;;;15.60;93.00;;;;;;5029223;28;20084;-72
2022/06/17 08:30:57;;;;;;;3.95;2.53;;;15.60;93.10;;;;;;5038935;28;20048;-71
2022/06/17 08:33:29;;;;;;;5.32;2.40;;;15.50;93.10;;;;;;5053897;28;20029;-71
2022/06/17 08:36:06;;;;;;;;;;;15.60;93.20;;;;;;5041538;28;20466;-72
2022/06/17 08:38:36;;;;;;;3.53;2.00;;;15.60;93.10;;;;;;5050382;28;19908;-72
2022/06/17 08:41:29;;;;;;;4.55;2.10;;;15.60;93.10;;;;;;5050109;28;20053;-73
2022/06/17 08:44:22;;;;;;;4.30;1.88;;;15.60;93.10;;;;;;5039753;28;20040;-74
2022/06/17 08:47:13;;;;;;;5.32;2.45;;;15.60;93.10;;;;;;5030312;28;20473;-71
2022/06/17 08:50:10;;;;;;;4.97;3.40;;;15.60;93.20;;;;;;5030275;28;20083;-72
2022/06/17 08:52:46;;;;;;;5.63;3.90;;;15.60;93.10;;;;;;5018206;28;20063;-72
2022/06/17 08:55:36;;;;;;;9.10;4.75;;;15.70;93.20;;;;;;5039952;28;20060;-70
2022/06/17 08:58:12;;;;;;;7.07;4.50;;;15.70;93.20;;;;;;5039555;28;20563;-71
2022/06/17 09:00:46;;;;;;;7.13;3.80;;;15.60;93.30;;;;;;5038935;28;20021;-71
2022/06/17 09:03:42;;;;;;;6.88;3.88;;;15.60;93.30;;;;;;5038701;28;20557;-70
2022/06/17 09:06:23;;;;;;;6.32;3.33;;;15.70;93.40;;;;;;5023752;28;20048;-70
2022/06/17 09:09:02;;;;;;;5.57;3.45;;;15.60;93.50;;;;;;5032770;28;20032;-73
2022/06/17 09:11:47;;;;;;;3.88;2.97;;;15.60;93.60;;;;;;5048670;28;20021;-71
2022/06/17 09:14:41;;;;;;;3.65;2.33;;;15.60;93.70;;;;;;5035280;28;20389;-70
2022/06/17 09:17:27;;;;;;;3.60;2.40;;;15.60;93.70;;;;;;5051397;28;20061;-70
2022/06/17 09:20:00;;;;;;;6.53;3.97;;;15.60;93.90;;;;;;5053485;28;20052;-72
2022/06/17 09:22:28;;;;;;;;;;;15.50;93.90;;;;;;5024737;28;20021;-70
2022/06/17 09:25:02;;;;;;;7.18;2.97;;;15.50;93.90;;;;;;5068058;28;20069;-71
2022/06/17 09:27:42;;;;;;;10.40;5.45;;;15.50;94.00;;;;;;5041738;28;20018;-70
2022/06/17 09:30:17;;;;;;;6.38;3.22;;;15.40;94.20;;;;;;5035986;28;20413;-72
2022/06/17 09:32:47;;;;;;;6.93;3.20;;;15.40;94.30;;;;;;5062814;28;20112;-73
2022/06/17 09:35:54;;;;;;;6.40;3.13;;;15.40;94.40;;;;;;5041741;28;20427;-73
2022/06/17 09:38:24;;;;;;;8.18;5.13;;;15.30;94.60;;;;;;5049920;28;20462;-69
2022/06/17 09:41:01;;;;;;;8.18;4.32;;;15.30;94.70;;;;;;5040140;28;20044;-71
2022/06/17 09:43:44;;;;;;;13.50;8.75;;;15.30;94.70;;;;;;5050375;28;20121;-69
2022/06/17 09:46:14;;;;;;;6.80;4.18;;;15.30;94.70;;;;;;5052640;28;20021;-71
2022/06/17 09:48:50;;;;;;;6.68;4.47;;;15.30;94.90;;;;;;5052545;28;20103;-70
2022/06/17 09:51:28;;;;;;;12.38;8.23;;;15.30;95.00;;;;;;5052956;28;20021;-71
2022/06/17 09:54:02;;;;;;;8.70;6.20;;;15.20;95.10;;;;;;5049440;28;20055;-70
2022/06/17 09:56:47;;;;;;;10.85;7.18;;;15.20;95.20;;;;;;5045336;28;20056;-70
2022/06/17 09:59:23;;;;;;;8.75;5.55;;;15.10;95.30;;;;;;5052479;28;20025;-69
2022/06/17 10:01:53;;;;;;;10.80;6.35;;;15.10;95.50;;;;;;5052045;28;20029;-70
2022/06/17 10:04:20;;;;;;;35.25;23.13;;;15.10;95.60;;;;;;5042277;28;20033;-72
2022/06/17 10:06:56;;;;;;;9.52;5.72;;;15.00;95.70;;;;;;5052194;28;20013;-70
2022/06/17 10:09:48;;;;;;;9.02;4.47;;;15.00;95.90;;;;;;5052247;28;20478;-71
2022/06/17 10:12:41;;;;;;;8.07;4.22;;;14.90;96.00;;;;;;5049602;28;20482;-70
2022/06/17 10:15:26;;;;;;;6.47;3.10;;;14.90;96.10;;;;;;5026526;28;20482;-72
2022/06/17 10:18:42;;;;;;;17.15;14.02;;;14.80;96.20;;;;;;5046437;28;20519;-72
2022/06/17 10:21:34;;;;;;;8.32;4.82;;;14.80;96.40;;;;;;5040336;28;20040;-70
2022/06/17 10:24:04;;;;;;;6.88;3.38;;;14.80;96.60;;;;;;5034643;28;20132;-70
2022/06/17 10:27:05;;;;;;;7.80;3.20;;;14.80;96.70;;;;;;5044519;28;20013;-69
2022/06/17 10:29:58;;;;;;;4.38;3.30;;;14.80;96.80;;;;;;5032681;28;20446;-70
2022/06/17 10:32:28;;;;;;;6.57;5.05;;;14.80;96.70;;;;;;5047730;28;20029;-70
2022/06/17 10:34:58;;;;;;;4.97;3.33;;;14.80;96.70;;;;;;5031929;28;20022;-69
2022/06/17 10:37:29;;;;;;;6.55;3.90;;;14.80;96.80;;;;;;5044367;28;20028;-68
2022/06/17 10:39:57;;;;;;;5.22;2.78;;;14.70;96.90;;;;;;5050364;28;20588;-68
2022/06/17 10:42:26;;;;;;;6.25;2.85;;;14.70;97.00;;;;;;5047823;28;20020;-69
2022/06/17 10:44:59;;;;;;;7.78;4.82;;;14.60;97.00;;;;;;5030969;28;20203;-70
2022/06/17 10:47:47;;;;;;;6.65;3.25;;;14.50;96.90;;;;;;5031618;28;20033;-69
2022/06/17 10:50:26;;;;;;;5.45;3.35;;;14.40;96.80;;;;;;5032964;28;20439;-69
2022/06/17 10:53:03;;;;;;;6.50;4.15;;;14.40;97.00;;;;;;5043605;28;20025;-70
2022/06/17 10:55:43;;;;;;;9.65;5.78;;;14.30;96.90;;;;;;5062230;28;20490;-68
2022/06/17 10:58:13;;;;;;;7.72;3.20;;;14.30;97.00;;;;;;5051433;28;20492;-69
2022/06/17 11:01:11;;;;;;;8.10;4.78;;;14.30;97.10;;;;;;5042270;28;20037;-72
2022/06/17 11:03:48;;;;;;;6.60;2.45;;;14.30;97.30;;;;;;5036513;28;20091;-71
2022/06/17 11:06:19;;;;;;;5.00;3.33;;;14.20;97.40;;;;;;5050771;28;20040;-69
2022/06/17 11:09:04;;;;;;;5.50;1.70;;;14.20;97.50;;;;;;5049887;28;20041;-70
2022/06/17 11:12:05;;;;;;;6.82;2.60;;;14.10;97.70;;;;;;5049759;28;20385;-69
2022/06/17 11:14:44;;;;;;;5.72;2.05;;;14.10;97.90;;;;;;5047423;28;20017;-69
2022/06/17 11:17:44;;;;;;;6.05;3.00;;;14.00;98.00;;;;;;5031464;28;20428;-68
2022/06/17 11:20:23;;;;;;;6.40;2.90;;;14.00;98.00;;;;;;5033314;28;20053;-69
2022/06/17 11:22:56;;;;;;;5.70;3.00;;;13.90;98.20;;;;;;5017955;28;20486;-70
2022/06/17 11:25:33;;;;;;;3.70;2.85;;;13.80;98.20;;;;;;5031371;28;20033;-69
2022/06/17 11:28:19;;;;;;;5.45;3.25;;;13.70;98.10;;;;;;5032200;28;20021;-68
2022/06/17 11:31:03;;;;;;;4.13;2.90;;;13.70;98.30;;;;;;5050959;28;20100;-69
2022/06/17 11:33:43;;;;;;;3.95;2.80;;;13.60;98.30;;;;;;5038818;28;20382;-69
2022/06/17 11:36:29;;;;;;;6.80;4.22;;;13.60;98.40;;;;;;5046447;28;20140;-69
2022/06/17 11:38:58;;;;;;;6.47;3.30;;;13.50;98.40;;;;;;5051334;28;20420;-69
2022/06/17 11:41:32;;;;;;;6.03;4.00;;;13.40;98.60;;;;;;5051148;28;20021;-69
2022/06/17 11:44:19;;;;;;;5.90;3.90;;;13.40;98.70;;;;;;5034640;28;20033;-70
2022/06/17 11:46:56;;;;;;;5.43;2.35;;;13.30;98.90;;;;;;5046607;28;20408;-68
2022/06/17 11:49:24;;;;;;;5.45;2.90;;;13.40;99.10;;;;;;5050963;28;20504;-69
2022/06/17 11:52:07;;;;;;;4.63;2.47;;;13.30;99.20;;;;;;5051093;28;20040;-70
2022/06/17 11:54:46;;;;;;;5.88;3.08;;;13.30;99.20;;;;;;5032055;28;20049;-69
2022/06/17 11:57:32;;;;;;;4.18;2.80;;;13.30;99.20;;;;;;5030840;28;20029;-70
2022/06/17 12:00:04;;;;;;;5.53;3.13;;;13.30;99.10;;;;;;5066512;28;20108;-72
2022/06/17 12:02:32;;;;;;;4.50;2.80;;;13.30;99.20;;;;;;5046838;28;20096;-71
2022/06/17 12:05:39;;;;;;;4.50;2.80;;;13.20;99.20;;;;;;5031066;28;20539;-71
2022/06/17 12:08:25;;;;;;;5.68;4.10;;;13.10;99.30;;;;;;4988869;28;20034;-69
2022/06/17 12:10:56;;;;;;;7.68;5.22;;;13.10;99.40;;;;;;4996196;28;20061;-69
2022/06/17 12:13:35;;;;;;;8.13;3.92;;;13.10;99.40;;;;;;5033896;28;20045;-69
2022/06/17 12:16:26;;;;;;;7.28;3.53;;;13.00;99.40;;;;;;5045848;28;20029;-69
2022/06/17 12:18:56;;;;;;;7.50;3.90;;;13.00;99.50;;;;;;5043511;28;20631;-68
2022/06/17 12:21:44;;;;;;;4.80;3.25;;;13.00;99.70;;;;;;5027628;28;20577;-69
2022/06/17 12:24:27;;;;;;;3.90;2.55;;;12.90;99.60;;;;;;5028800;28;20041;-70
2022/06/17 12:27:03;;;;;;;5.03;3.08;;;12.90;99.70;;;;;;5045974;28;20025;-70
2022/06/17 12:29:43;;;;;;;5.28;2.78;;;13.00;99.80;;;;;;5053359;28;20023;-69
2022/06/17 12:32:28;;;;;;;5.63;2.53;;;13.00;99.80;;;;;;5052721;28;20377;-69
2022/06/17 12:34:58;;;;;;;4.53;2.85;;;13.00;99.90;;;;;;5040041;28;20074;-71
2022/06/17 12:37:49;;;;;;;6.53;2.70;;;13.00;99.90;;;;;;5053528;28;20028;-69
2022/06/17 12:40:23;;;;;;;5.72;2.75;;;13.10;99.90;;;;;;5054062;28;20021;-69
2022/06/17 12:43:10;;;;;;;5.22;3.40;;;13.10;99.90;;;;;;5051716;28;20079;-72
2022/06/17 12:45:45;;;;;;;4.82;2.50;;;13.10;99.90;;;;;;5053927;28;20375;-69
2022/06/17 12:48:33;;;;;;;4.70;3.15;;;13.10;99.90;;;;;;5049485;28;20489;-71
2022/06/17 12:54:07;;;;;;;5.15;3.33;;;13.10;99.90;;;;;;5038832;28;20056;-70
2022/06/17 12:56:40;;;;;;;3.70;2.60;;;13.10;99.90;;;;;;5044793;28;20025;-70
2022/06/17 12:59:24;;;;;;;4.30;2.53;;;13.00;99.90;;;;;;5054672;28;20025;-70
2022/06/17 13:01:54;;;;;;;6.95;2.85;;;13.00;99.90;;;;;;5047360;28;20028;-71
2022/06/17 13:04:51;;;;;;;3.75;2.80;;;12.90;99.90;;;;;;5047911;28;20036;-72
2022/06/17 13:07:35;;;;;;;6.18;2.47;;;12.80;99.90;;;;;;5054281;28;20087;-71
2022/06/17 13:13:01;;;;;;;4.63;2.40;;;12.70;99.90;;;;;;5047217;28;20031;-68
2022/06/17 13:15:35;;;;;;;5.47;2.30;;;12.60;99.90;;;;;;5033971;28;20106;-70
2022/06/17 13:18:18;;;;;;;6.90;2.30;;;12.70;99.90;;;;;;5033854;28;20448;-69
2022/06/17 13:20:48;;;;;;;;;;;12.60;99.90;;;;;;5041152;28;20108;-70
2022/06/17 13:23:40;;;;;;;4.28;2.35;;;12.50;99.90;;;;;;5051063;28;19963;-69
2022/06/17 13:26:14;;;;;;;6.60;3.17;;;12.50;99.90;;;;;;5053877;28;20064;-70
2022/06/17 13:28:55;;;;;;;8.40;2.65;;;12.50;99.90;;;;;;5053285;28;20025;-70
2022/06/17 13:31:34;;;;;;;4.97;2.28;;;12.40;99.90;;;;;;5052852;28;20025;-71
2022/06/17 13:34:05;;;;;;;6.70;2.30;;;12.50;99.90;;;;;;5036697;28;20080;-70
2022/06/17 13:36:58;;;;;;;5.60;2.10;;;12.50;99.90;;;;;;5034016;28;20049;-68
2022/06/17 13:39:30;;;;;;;;;;;12.50;99.90;;;;;;5048131;28;20265;-70
2022/06/17 13:42:06;;;;;;;10.13;2.42;;;12.60;99.90;;;;;;5052672;28;19908;-71
2022/06/17 13:44:52;;;;;;;3.92;1.50;;;12.60;99.90;;;;;;5013519;28;20038;-70